Mexico, Kentucky
Current Conditions -  °F | °C
As of 1:35 AM on Saturday 29 Nov 2014 (Local Time) from K5M9 Reporting Station
Clear Clear  
Wind Chill: 35°   Ceiling: Unl
Heat Index: 40°   Visibility: 10mi
Dew Point: 28°   Wind: 9mph
Humidity: 62%   Direction: 200°SSW
Pressure: 30.02"   Gusts: NA
Location:  37.3359°N, 88.1049°W
Report Text: K5M9 290735Z AUTO 20008KT 10SM CLR 05/M02 A3002 RMK AO2 T00471020
Loading
Personal Weather Stations






























Interactive Weather Map New forecast layout! Learn more

10-Day Weather Forecast

Advertisements
Track Severe Weather on mobile